Impacts TAF Board INFO
FOR SITUATIONAL AWARENESS. NOT TO BE USED FOR FLIGHT PLANNING PURPOSES.
IDs:

KMIA - Miami Intl, FL, US

Issued at 0552 UTC 12 Dec 2017
Updated at 0821 UTC 12 Dec 2017
Potential Impact None Slight Moderate High
Time0753Z 12/09Z 12/10Z 12/11Z 12/12Z 12/13Z 12/14Z 12/15Z 12/16Z 12/17Z 12/18Z 12/19Z 12/20Z 12/21Z>>
Type OBS PRVL PRVL PRVL PRVL PRVL PRVL PRVL PRVL PRVL PRVL PRVL PRVL PRVL
VIS 10 >6 >6 >6 >6 >6 >6 >6 >6 >6 >6 >6 >6 >6
CIG -- -- -- -- -- -- -- -- -- -- -- -- -- --
Cover CLR SKC SKC SKC SKC SKC SKC FEW FEW FEW FEW FEW FEW FEW
FltCat VFR VFR VFR VFR VFR VFR VFR VFR VFR VFR VFR VFR VFR VFR
WX -- -- -- -- -- -- -- -- -- -- -- -- -- --
WDir VRB VRB VRB VRB VRB VRB VRB 270 270 270 270 270 270 270
WSpd 0 3 3 3 3 3 3 10 10 10 10 10 10 10
WGst -- -- -- -- -- -- -- -- -- -- -- -- -- --

Raw TAF
KMIA 120552Z 1206/1312 VRB03KT P6SM SKC
  FM121500 27010KT P6SM FEW030
  FM130000 VRB03KT P6SM SKC


Raw METAR
KMIA 120753Z 00000KT 10SM CLR 10/06 A3011 RMK AO2 SLP195 T01000061 $
KMIA 120653Z 00000KT 10SM CLR 10/06 A3013 RMK AO2 SLP202 T01000061 $
KMIA 120553Z 00000KT 10SM CLR 13/06 A3014 RMK AO2 SLP206 T01280056 10161 20128 58016 $

METAR Board
Radar Display
Forecast Discussion

FOR SITUATIONAL AWARENESS. NOT TO BE USED FOR FLIGHT PLANNING PURPOSES.